Time;durP1;ratioP1;P1;durP2;ratioP2;P2;SDS_P1;SDS_P2;PMS_P1;PMS_P2;Temp;Humidity;BMP_temperature;BMP_pressure;BME280_temperature;BME280_humidity;BME280_pressure;Samples;Min_cycle;Max_cycle;Signal;HPM_P1;HPM_P2
2023/03/11 05:22:32;;;;;;;0.60;0.60;;;;;;;-0.45;100.00;99488.13;5068677;28;20168;-70
2023/03/11 05:24:57;;;;;;;1.77;1.15;;;;;;;-0.43;100.00;99486.19;5067609;28;20106;-70
2023/03/11 05:27:23;;;;;;;1.13;1.05;;;;;;;-0.45;100.00;99494.19;5067552;28;20045;-69
2023/03/11 05:29:54;;;;;;;0.95;0.85;;;;;;;-0.45;100.00;99493.34;5067453;28;20040;-69
2023/03/11 05:32:21;;;;;;;1.17;1.17;;;;;;;-0.44;100.00;99495.00;5067168;28;20043;-68
2023/03/11 05:34:48;;;;;;;1.30;0.83;;;;;;;-0.47;100.00;99498.69;5067251;28;20067;-68
2023/03/11 05:37:15;;;;;;;1.85;1.00;;;;;;;-0.47;100.00;99503.09;5067287;28;20036;-69
2023/03/11 05:39:41;;;;;;;2.08;1.20;;;;;;;-0.48;100.00;99504.03;5050837;28;20041;-69
2023/03/11 05:42:07;;;;;;;1.40;1.30;;;;;;;-0.48;100.00;99493.56;5066962;28;20473;-68
2023/03/11 05:44:33;;;;;;;1.58;0.73;;;;;;;-0.53;100.00;99488.69;5050523;28;20404;-69
2023/03/11 05:47:00;;;;;;;3.00;1.20;;;;;;;-0.45;100.00;99499.41;5066883;28;20041;-69
2023/03/11 05:49:26;;;;;;;1.55;1.00;;;;;;;-0.42;100.00;99509.63;5067110;28;20037;-69
2023/03/11 05:51:53;;;;;;;1.52;1.13;;;;;;;-0.47;100.00;99511.75;5067010;28;20472;-68
2023/03/11 05:54:19;;;;;;;2.17;1.00;;;;;;;-0.48;100.00;99511.88;5066699;28;20068;-69
2023/03/11 05:56:47;;;;;;;1.02;0.90;;;;;;;-0.51;100.00;99518.22;5066834;28;20401;-69
2023/03/11 05:59:15;;;;;;;1.65;1.10;;;;;;;-0.51;100.00;99515.59;5066943;28;20043;-69
2023/03/11 06:01:41;;;;;;;0.93;0.85;;;;;;;-0.50;100.00;99516.41;5066677;28;20033;-69
2023/03/11 06:04:08;;;;;;;2.30;1.13;;;;;;;-0.50;100.00;99500.72;5066507;28;20131;-69
2023/03/11 06:06:33;;;;;;;2.22;1.00;;;;;;;-0.51;100.00;99514.75;5066885;28;20071;-69
2023/03/11 06:08:59;;;;;;;1.02;1.00;;;;;;;-0.51;100.00;99502.50;5067932;28;20397;-68
2023/03/11 06:11:27;;;;;;;2.10;0.95;;;;;;;-0.54;100.00;99500.13;5066547;28;20127;-68
2023/03/11 06:13:55;;;;;;;1.63;1.13;;;;;;;-0.49;100.00;99500.59;5049796;28;20561;-69
2023/03/11 06:16:23;;;;;;;2.05;1.08;;;;;;;-0.44;100.00;99508.91;5066380;28;20037;-69
2023/03/11 06:18:49;;;;;;;3.17;0.95;;;;;;;-0.37;100.00;99514.50;5066522;28;20033;-69
2023/03/11 06:21:21;;;;;;;1.90;1.10;;;;;;;-0.28;100.00;99521.63;5066211;28;20127;-68
2023/03/11 06:23:47;;;;;;;3.40;1.02;;;;;;;-0.20;100.00;99518.38;5067454;28;20037;-69
2023/03/11 06:26:16;;;;;;;1.33;1.23;;;;;;;-0.10;100.00;99519.31;5067411;28;20409;-68
2023/03/11 06:28:44;;;;;;;2.95;0.85;;;;;;;-0.01;100.00;99536.91;5066389;28;20048;-68
2023/03/11 06:31:14;;;;;;;1.17;1.00;;;;;;;0.05;98.80;99539.03;5065936;28;20041;-69
2023/03/11 06:33:40;;;;;;;1.00;0.90;;;;;;;0.12;100.00;99544.59;5055197;28;20295;-68
2023/03/11 06:36:06;;;;;;;1.23;0.85;;;;;;;0.17;100.00;99545.06;5052758;28;20035;-69
2023/03/11 06:38:33;;;;;;;1.05;0.98;;;;;;;0.21;98.65;99544.72;5054240;28;20032;-69
2023/03/11 06:41:03;;;;;;;2.53;1.05;;;;;;;0.21;97.48;99541.25;5054403;28;20052;-69
2023/03/11 06:43:31;;;;;;;4.65;1.48;;;;;;;0.36;97.37;99549.66;5053860;28;20032;-69
2023/03/11 06:45:58;;;;;;;3.70;0.95;;;;;;;0.43;97.30;99556.88;5052774;28;20115;-68
2023/03/11 06:48:24;;;;;;;1.20;1.10;;;;;;;0.52;97.04;99557.91;5052633;28;20037;-69
2023/03/11 06:50:59;;;;;;;3.83;1.70;;;;;;;0.64;96.78;99554.28;5052685;28;20052;-68
2023/03/11 06:53:28;;;;;;;0.75;0.75;;;;;;;0.71;95.02;99557.22;5052543;28;20047;-69
2023/03/11 06:56:09;;;;;;;1.77;1.25;;;;;;;0.81;95.37;99566.84;5052543;28;20056;-69
2023/03/11 06:58:41;;;;;;;1.15;0.80;;;;;;;0.94;96.18;99565.81;5052510;28;20094;-68
2023/03/11 07:01:12;;;;;;;0.93;0.73;;;;;;;1.06;95.71;99559.53;5052490;28;20037;-68
2023/03/11 07:03:38;;;;;;;1.08;0.85;;;;;;;1.20;92.86;99564.44;5035520;28;20166;-68
2023/03/11 07:06:04;;;;;;;2.45;1.30;;;;;;;1.33;92.05;99569.50;5053567;28;20116;-67
2023/03/11 07:08:30;;;;;;;1.13;0.93;;;;;;;1.42;91.12;99578.38;5052847;28;20118;-65
2023/03/11 07:11:08;;;;;;;2.33;1.10;;;;;;;1.58;90.42;99581.34;5052713;28;20080;-64
2023/03/11 07:13:35;;;;;;;1.23;0.93;;;;;;;1.73;88.27;99581.81;5036104;28;20029;-64
2023/03/11 07:16:07;;;;;;;2.80;0.90;;;;;;;1.76;87.31;99595.53;5053880;28;20112;-52
2023/03/11 07:18:33;;;;;;;1.95;1.10;;;;;;;1.86;88.66;99587.66;5053903;28;20045;-52
2023/03/11 07:21:01;;;;;;;2.38;0.98;;;;;;;1.97;87.10;99592.81;5052414;28;20033;-49
2023/03/11 07:23:27;;;;;;;0.90;0.90;;;;;;;2.00;86.13;99594.34;5053491;28;20182;-66
2023/03/11 07:25:54;;;;;;;0.75;0.75;;;;;;;2.16;87.56;99602.53;5053622;28;20295;-65
2023/03/11 07:28:21;;;;;;;1.30;1.13;;;;;;;2.32;86.57;99610.72;5052417;28;20041;-65
2023/03/11 07:30:47;;;;;;;0.80;0.80;;;;;;;2.34;85.83;99616.66;5053537;28;20398;-65
2023/03/11 07:33:13;;;;;;;1.67;1.00;;;;;;;2.51;85.91;99620.44;5051835;28;20048;-66
2023/03/11 07:35:38;;;;;;;4.60;1.13;;;;;;;2.62;84.48;99625.59;5053593;28;20574;-67
2023/03/11 07:38:04;;;;;;;1.08;0.77;;;;;;;2.64;81.61;99626.25;5053296;28;20116;-66
2023/03/11 07:40:30;;;;;;;1.50;0.95;;;;;;;2.72;81.57;99625.56;5052310;28;20037;-66
2023/03/11 07:42:55;;;;;;;0.88;0.88;;;;;;;2.86;82.48;99624.31;5053043;28;20025;-66
2023/03/11 07:45:20;;;;;;;4.60;1.25;;;;;;;2.81;81.24;99626.56;5051058;28;20493;-66
2023/03/11 07:47:46;;;;;;;0.98;0.93;;;;;;;2.83;80.52;99630.69;5053225;28;20037;-66
2023/03/11 07:50:11;;;;;;;0.98;0.70;;;;;;;2.99;81.14;99627.50;5051835;28;20459;-66
2023/03/11 07:52:37;;;;;;;1.38;0.73;;;;;;;3.11;80.31;99641.34;5052933;28;20533;-65
2023/03/11 07:55:02;;;;;;;1.02;0.95;;;;;;;3.25;80.94;99649.63;5053089;28;20048;-66
2023/03/11 07:57:28;;;;;;;2.00;0.77;;;;;;;3.35;78.38;99648.81;5053271;28;20424;-66
2023/03/11 07:59:54;;;;;;;0.98;0.80;;;;;;;3.51;76.26;99651.66;5052917;28;20044;-65
2023/03/11 08:02:19;;;;;;;0.50;0.50;;;;;;;3.57;71.58;99660.81;5034878;28;20047;-66
2023/03/11 08:04:44;;;;;;;3.83;0.90;;;;;;;3.58;70.72;99657.19;5052850;28;20041;-66
2023/03/11 08:07:10;;;;;;;1.40;0.85;;;;;;;3.57;71.74;99659.00;5052814;28;20044;-66
2023/03/11 08:09:35;;;;;;;0.95;0.77;;;;;;;3.57;71.68;99660.81;5051551;28;20037;-66
2023/03/11 08:12:01;;;;;;;2.22;0.77;;;;;;;3.49;71.23;99664.97;5052714;28;20448;-65
2023/03/11 08:14:27;;;;;;;1.05;0.82;;;;;;;3.57;71.38;99660.81;5052469;28;20112;-66
2023/03/11 08:16:53;;;;;;;2.17;0.63;;;;;;;3.83;71.02;99661.81;5052715;28;20428;-66
2023/03/11 08:19:18;;;;;;;3.70;0.80;;;;;;;3.84;68.82;99671.38;5052497;28;20115;-66
2023/03/11 08:21:43;;;;;;;3.97;1.13;;;;;;;4.08;67.52;99661.19;5066378;28;20032;-65
2023/03/11 08:24:12;;;;;;;4.40;1.05;;;;;;;4.01;65.13;99660.09;5072218;28;20482;-65
2023/03/11 08:26:37;;;;;;;4.13;2.15;;;;;;;4.40;68.61;99664.34;5072252;28;20097;-66
2023/03/11 08:29:03;;;;;;;3.63;1.23;;;;;;;4.31;68.23;99661.63;5072370;28;20028;-66
2023/03/11 08:31:30;;;;;;;1.17;0.68;;;;;;;4.22;63.14;99659.03;5072337;28;20043;-65
2023/03/11 08:34:01;;;;;;;3.97;2.10;;;;;;;4.51;65.65;99662.34;5072404;28;20059;-66
2023/03/11 08:36:27;;;;;;;1.95;1.02;;;;;;;4.33;63.42;99664.09;5072264;28;20507;-66
2023/03/11 08:38:52;;;;;;;1.83;1.10;;;;;;;4.68;65.37;99663.31;5072384;28;20044;-67
2023/03/11 08:41:18;;;;;;;5.15;1.40;;;;;;;4.84;65.27;99668.78;5072420;28;20093;-66
2023/03/11 08:43:44;;;;;;;0.75;0.70;;;;;;;4.72;63.24;99664.69;5071919;28;20036;-66
2023/03/11 08:46:16;;;;;;;1.42;1.05;;;;;;;4.94;63.88;99668.69;5072086;28;20072;-66
2023/03/11 08:48:41;;;;;;;3.10;1.17;;;;;;;5.18;64.70;99668.91;5072305;28;20033;-63
2023/03/11 08:51:10;;;;;;;4.40;1.25;;;;;;;5.37;62.68;99669.72;5072037;28;20413;-64
2023/03/11 08:53:36;;;;;;;1.75;1.20;;;;;;;5.32;65.15;99680.75;5071874;28;20512;-63
2023/03/11 08:56:02;;;;;;;0.50;0.50;;;;;;;5.25;63.73;99673.59;5071589;28;20044;-62
2023/03/11 08:58:28;;;;;;;4.15;0.73;;;;;;;5.38;61.09;99671.38;5072286;28;20031;-61
2023/03/11 09:00:54;;;;;;;1.33;0.60;;;;;;;5.04;62.84;99685.28;5072015;28;20047;-61
2023/03/11 09:03:19;;;;;;;5.20;1.60;;;;;;;5.16;62.94;99692.00;5071743;28;20115;-64
2023/03/11 09:05:45;;;;;;;6.25;1.10;;;;;;;5.25;64.11;99694.72;5071952;28;20036;-64
2023/03/11 09:08:10;;;;;;;0.93;0.57;;;;;;;4.97;61.24;99689.53;5071989;28;20048;-63
2023/03/11 09:10:36;;;;;;;3.88;1.00;;;;;;;4.51;66.43;99691.34;5071803;28;20032;-60
2023/03/11 09:13:01;;;;;;;1.95;0.75;;;;;;;4.86;65.00;99695.00;5069725;28;20941;-60
2023/03/11 09:15:27;;;;;;;1.35;0.80;;;;;;;5.18;64.08;99697.97;5070660;28;20029;-63
2023/03/11 09:17:53;;;;;;;3.65;1.05;;;;;;;5.30;61.76;99685.34;5071635;28;20040;-62
2023/03/11 09:20:18;;;;;;;2.25;1.25;;;;;;;5.52;62.56;99694.59;5071538;28;20041;-61
2023/03/11 09:22:44;;;;;;;1.60;0.85;;;;;;;5.44;61.25;99687.44;5053429;28;20040;-64
2023/03/11 09:25:11;;;;;;;1.50;0.80;;;;;;;5.56;59.71;99685.38;5071370;28;20051;-63
2023/03/11 09:27:37;;;;;;;5.43;3.20;;;;;;;6.03;61.65;99692.13;5071617;28;20393;-61
2023/03/11 09:30:03;;;;;;;2.97;0.80;;;;;;;6.48;60.44;99681.25;5071722;28;20036;-61
2023/03/11 09:32:29;;;;;;;1.65;0.63;;;;;;;6.37;57.05;99676.25;5071103;28;20166;-61
2023/03/11 09:34:54;;;;;;;2.95;0.82;;;;;;;6.78;57.07;99677.19;5071430;28;20131;-64
2023/03/11 09:37:20;;;;;;;7.43;2.25;;;;;;;7.31;56.29;99676.75;5071464;28;20102;-65
2023/03/11 09:39:45;;;;;;;1.45;0.43;;;;;;;7.36;57.02;99678.88;5071423;28;20044;-61
2023/03/11 09:42:24;;;;;;;0.95;0.60;;;;;;;7.21;56.75;99688.50;5053617;28;20024;-61
2023/03/11 09:45:02;;;;;;;0.95;0.50;;;;;;;7.44;56.23;99675.44;5071510;28;20055;-61
2023/03/11 09:47:52;;;;;;;0.65;0.65;;;;;;;7.83;53.83;99692.28;5071547;28;20028;-62
2023/03/11 09:50:31;;;;;;;1.40;0.60;;;;;;;7.62;51.94;99689.31;5071445;28;20382;-60
2023/03/11 09:53:18;;;;;;;1.27;1.05;;;;;;;8.26;49.56;99679.53;5053422;28;20048;-60
2023/03/11 09:55:50;;;;;;;2.55;1.58;;;;;;;8.21;49.36;99681.84;5071367;28;20032;-62
2023/03/11 09:58:20;;;;;;;1.58;1.08;;;;;;;8.04;51.09;99681.09;5071550;28;20036;-60
2023/03/11 10:00:46;;;;;;;1.27;0.60;;;;;;;7.95;50.33;99671.50;5071409;28;20025;-61
2023/03/11 10:03:23;;;;;;;1.15;0.82;;;;;;;7.57;49.36;99681.03;5071288;28;20055;-59
2023/03/11 10:05:51;;;;;;;1.17;0.82;;;;;;;6.96;50.03;99669.94;5071354;28;20040;-60
2023/03/11 10:08:27;;;;;;;1.27;0.63;;;;;;;6.74;51.07;99681.97;5073508;28;20029;-58
2023/03/11 10:11:13;;;;;;;0.60;0.57;;;;;;;6.87;51.75;99680.69;5074950;28;20047;-61
2023/03/11 10:13:46;;;;;;;3.05;0.98;;;;;;;7.20;52.10;99682.38;5075144;28;20075;-58
2023/03/11 10:16:32;;;;;;;4.28;0.88;;;;;;;7.13;50.93;99676.09;5074984;28;20504;-58
2023/03/11 10:19:29;;;;;;;0.85;0.60;;;;;;;7.96;47.79;99682.97;5075003;28;20082;-58
2023/03/11 10:22:06;;;;;;;2.80;0.70;;;;;;;9.03;46.51;99681.47;5061358;28;20047;-63
2023/03/11 10:24:53;;;;;;;1.73;0.68;;;;;;;9.58;39.88;99672.38;5074529;28;20035;-60
2023/03/11 10:27:23;;;;;;;2.65;0.63;;;;;;;9.98;39.21;99664.00;5074854;28;20127;-59
2023/03/11 10:30:01;;;;;;;2.22;0.57;;;;;;;10.75;39.18;99663.53;5074785;28;20040;-59
2023/03/11 10:32:52;;;;;;;2.30;0.52;;;;;;;9.66;41.50;99661.69;5074638;28;20037;-58
2023/03/11 10:35:21;;;;;;;0.60;0.50;;;;;;;9.62;43.22;99657.72;5074621;28;20037;-63
2023/03/11 10:37:55;;;;;;;1.27;0.50;;;;;;;9.69;42.82;99664.78;5074729;28;20036;-58
2023/03/11 10:40:29;;;;;;;0.32;0.32;;;;;;;8.49;45.55;99660.22;5074376;28;20115;-59
2023/03/11 10:42:57;;;;;;;1.38;0.52;;;;;;;8.65;43.93;99657.47;5074616;28;20436;-58
2023/03/11 10:45:24;;;;;;;0.45;0.43;;;;;;;8.59;45.14;99653.69;5074407;28;20040;-58
2023/03/11 10:47:50;;;;;;;0.63;0.63;;;;;;;8.52;48.69;99667.84;5074355;28;20028;-63
2023/03/11 10:50:17;;;;;;;0.55;0.43;;;;;;;8.33;48.36;99664.56;5074208;28;20485;-57
2023/03/11 10:53:05;;;;;;;0.60;0.60;;;;;;;8.62;46.29;99669.28;5074177;28;20079;-60
2023/03/11 10:55:30;;;;;;;2.13;0.75;;;;;;;8.28;45.84;99666.06;5074305;28;20029;-59
2023/03/11 10:58:27;;;;;;;0.50;0.50;;;;;;;7.67;46.17;99681.69;5074276;28;20404;-62
2023/03/11 11:01:22;;;;;;;0.45;0.45;;;;;;;7.36;48.48;99684.19;5053999;28;20521;-59
2023/03/11 11:03:50;;;;;;;2.38;0.43;;;;;;;8.77;46.81;99673.84;5052607;28;20143;-59
2023/03/11 11:06:31;;;;;;;2.47;1.23;;;;;;;10.02;41.14;99678.56;5074116;28;20047;-58
2023/03/11 11:09:16;;;;;;;0.45;0.35;;;;;;;10.74;41.02;99677.03;5074193;28;20079;-62
2023/03/11 11:11:58;;;;;;;1.50;0.63;;;;;;;10.72;39.21;99673.75;5074021;28;20033;-56
2023/03/11 11:14:24;;;;;;;2.78;1.30;;;;;;;10.66;38.62;99683.31;5073811;28;20401;-58
2023/03/11 11:16:51;;;;;;;1.50;0.50;;;;;;;9.73;40.43;99678.56;5073727;28;20041;-59
2023/03/11 11:19:17;;;;;;;1.83;0.97;;;;;;;9.14;41.94;99681.06;5073949;28;20047;-58
2023/03/11 11:21:47;;;;;;;1.30;0.55;;;;;;;9.42;40.43;99673.34;5073541;28;20314;-56
2023/03/11 11:24:30;;;;;;;0.88;0.52;;;;;;;9.07;40.61;99686.25;5073513;28;20071;-59
2023/03/11 11:27:15;;;;;;;0.85;0.70;;;;;;;8.82;41.95;99679.47;5073582;28;20119;-57
2023/03/11 11:29:42;;;;;;;1.02;0.50;;;;;;;8.96;43.24;99679.53;5073639;28;20036;-61
2023/03/11 11:32:28;;;;;;;2.88;0.60;;;;;;;8.27;45.00;99667.09;5073409;28;20063;-58
2023/03/11 11:35:00;;;;;;;0.93;0.77;;;;;;;8.65;44.04;99676.06;5073633;28;20493;-60
2023/03/11 11:37:30;;;;;;;1.02;0.50;;;;;;;9.37;42.57;99675.72;5073361;28;20115;-59
2023/03/11 11:40:24;;;;;;;1.00;0.50;;;;;;;10.44;40.58;99674.47;5073574;28;20481;-57
2023/03/11 11:42:54;;;;;;;0.73;0.40;;;;;;;10.36;40.20;99666.56;5062981;28;20055;-59
2023/03/11 11:45:38;;;;;;;0.50;0.30;;;;;;;9.54;39.46;99663.94;5073507;28;20508;-58
2023/03/11 11:48:13;;;;;;;0.98;0.88;;;;;;;9.42;40.42;99660.88;5073320;28;20040;-61
2023/03/11 11:50:51;;;;;;;0.80;0.50;;;;;;;9.16;40.38;99660.44;5073297;28;20041;-56
2023/03/11 11:53:42;;;;;;;0.45;0.43;;;;;;;9.06;41.55;99654.53;5072757;28;20485;-59
2023/03/11 11:56:08;;;;;;;2.80;0.80;;;;;;;9.18;40.32;99653.13;5073165;28;20485;-59
2023/03/11 11:58:34;;;;;;;0.43;0.43;;;;;;;9.67;41.26;99650.84;5073037;28;20048;-62
2023/03/11 12:01:38;;;;;;;1.38;0.40;;;;;;;9.35;38.49;99648.50;5073107;28;20059;-58
2023/03/11 12:04:12;;;;;;;1.17;0.57;;;;;;;8.83;39.78;99650.06;5072710;28;20072;-58
2023/03/11 12:07:02;;;;;;;0.85;0.65;;;;;;;8.35;41.02;99648.50;5072917;28;20100;-58
2023/03/11 12:09:47;;;;;;;5.72;1.30;;;;;;;8.06;40.30;99647.28;5021863;28;20072;-57
2023/03/11 12:12:24;;;;;;;1.67;0.50;;;;;;;7.82;41.54;99650.84;5072819;28;20041;-57
2023/03/11 12:15:30;;;;;;;0.30;0.30;;;;;;;7.44;41.22;99654.22;5072753;28;20044;-55
2023/03/11 12:18:02;;;;;;;0.30;0.30;;;;;;;7.52;41.43;99657.69;5072885;28;20512;-64
2023/03/11 12:20:44;;;;;;;3.35;0.57;;;;;;;7.68;44.28;99656.81;5072620;28;20040;-64
2023/03/11 12:23:23;;;;;;;0.57;0.47;;;;;;;7.59;43.24;99652.53;5072280;28;20041;-58
2023/03/11 12:26:12;;;;;;;0.35;0.35;;;;;;;8.84;43.70;99649.06;5072474;28;20405;-57
2023/03/11 12:28:59;;;;;;;1.05;0.68;;;;;;;9.79;40.89;99643.25;5072357;28;20040;-57
2023/03/11 12:31:28;;;;;;;2.00;0.55;;;;;;;9.16;42.04;99649.81;5071057;28;20040;-63
2023/03/11 12:33:56;;;;;;;2.05;0.70;;;;;;;9.53;41.50;99646.34;5071711;28;20153;-56
2023/03/11 12:36:33;;;;;;;0.77;0.57;;;;;;;9.03;40.88;99649.59;5072402;28;20068;-60
2023/03/11 12:39:01;;;;;;;1.00;0.70;;;;;;;9.20;42.33;99646.63;5068812;28;20060;-62
2023/03/11 12:41:41;;;;;;;2.00;0.45;;;;;;;9.07;41.38;99650.91;5061998;28;20479;-58
2023/03/11 12:44:28;;;;;;;0.70;0.28;;;;;;;9.56;42.04;99645.16;5061566;28;20482;-61
2023/03/11 12:46:54;;;;;;;1.35;0.50;;;;;;;10.51;38.82;99639.94;5060156;28;20198;-59
2023/03/11 12:49:40;;;;;;;1.00;0.40;;;;;;;10.92;39.29;99639.31;5060542;28;20068;-58
2023/03/11 12:52:12;;;;;;;3.20;0.63;;;;;;;10.24;37.93;99636.94;5061664;28;20394;-59
2023/03/11 12:54:45;;;;;;;0.75;0.40;;;;;;;10.42;37.35;99635.69;5060954;28;20430;-62
2023/03/11 12:57:17;;;;;;;0.73;0.50;;;;;;;11.68;36.85;99635.03;5061386;28;20565;-62
2023/03/11 13:00:17;;;;;;;1.02;0.57;;;;;;;11.92;34.57;99620.44;5061546;28;20501;-62
2023/03/11 13:03:13;;;;;;;1.70;0.73;;;;;;;12.32;34.24;99620.59;5061302;28;20482;-62
2023/03/11 13:05:56;;;;;;;1.60;0.67;;;;;;;13.38;31.77;99613.66;5062855;28;20473;-63
2023/03/11 13:08:27;;;;;;;1.00;0.43;;;;;;;12.90;34.34;99608.44;5061287;28;20473;-63
2023/03/11 13:10:54;;;;;;;0.60;0.50;;;;;;;13.79;32.78;99618.72;5060980;28;20047;-63
2023/03/11 13:13:32;;;;;;;0.57;0.33;;;;;;;14.67;30.24;99612.88;5060649;28;20448;-63
2023/03/11 13:16:17;;;;;;;0.30;0.30;;;;;;;13.73;32.33;99622.25;5042506;28;20482;-63
2023/03/11 13:18:48;;;;;;;0.38;0.38;;;;;;;14.69;31.84;99610.78;5060596;28;20086;-63
2023/03/11 13:21:26;;;;;;;2.97;0.60;;;;;;;14.76;29.64;99600.84;5060575;28;20056;-61
2023/03/11 13:23:51;;;;;;;;;;;;;;;13.69;32.51;99602.31;5044484;28;20036;-62
2023/03/11 13:26:24;;;;;;;3.00;0.65;;;;;;;13.92;30.86;99609.03;5062301;28;20365;-61
2023/03/11 13:29:09;;;;;;;1.58;0.40;;;;;;;14.47;31.89;99612.13;5043934;28;20029;-62
2023/03/11 13:32:02;;;;;;;0.40;0.40;;;;;;;14.49;29.86;99615.44;5062236;28;20033;-62
2023/03/11 13:34:42;;;;;;;0.40;0.40;;;;;;;15.38;29.19;99620.59;5059446;28;20075;-64
2023/03/11 13:37:17;;;;;;;1.23;0.55;;;;;;;15.31;28.88;99629.75;5061370;28;20033;-63
2023/03/11 13:39:45;;;;;;;0.40;0.40;;;;;;;14.92;29.50;99642.41;5060474;28;20071;-63
2023/03/11 13:42:49;;;;;;;1.10;0.60;;;;;;;14.24;29.28;99629.53;5061015;28;20078;-63
2023/03/11 13:45:27;;;;;;;1.75;0.85;;;;;;;14.24;27.71;99634.88;5034139;28;20071;-62
2023/03/11 13:47:58;;;;;;;3.42;1.60;;;;;;;13.84;30.54;99637.69;5048347;28;20056;-63
2023/03/11 13:50:48;;;;;;;1.08;0.70;;;;;;;11.65;34.80;99632.75;5047372;28;20029;-62
2023/03/11 13:53:21;;;;;;;1.77;0.80;;;;;;;12.20;32.92;99634.56;5065829;28;20033;-65
2023/03/11 13:55:48;;;;;;;1.38;0.57;;;;;;;11.81;33.98;99637.84;5064859;28;20025;-62
2023/03/11 13:58:40;;;;;;;1.33;0.68;;;;;;;12.04;32.15;99621.53;5063945;28;20505;-62
2023/03/11 14:01:05;;;;;;;1.17;0.60;;;;;;;11.79;33.14;99606.97;5059456;28;20079;-62
2023/03/11 14:03:39;;;;;;;0.52;0.52;;;;;;;11.94;32.37;99595.22;5047842;28;20059;-64
2023/03/11 14:06:08;;;;;;;2.10;0.80;;;;;;;11.11;32.44;99618.19;5049542;28;20444;-62
2023/03/11 14:08:35;;;;;;;1.40;0.80;;;;;;;11.11;32.69;99625.38;5063774;28;20037;-62
2023/03/11 14:11:13;;;;;;;0.55;0.55;;;;;;;11.11;32.78;99620.03;5045170;28;20134;-62
2023/03/11 14:13:41;;;;;;;0.35;0.32;;;;;;;10.24;33.75;99617.50;5047650;28;20363;-62
2023/03/11 14:16:20;;;;;;;0.40;0.40;;;;;;;9.99;34.57;99617.75;5064157;28;20545;-60
2023/03/11 14:18:48;;;;;;;1.27;0.60;;;;;;;10.05;35.73;99625.00;5047967;28;20039;-53
2023/03/11 14:21:22;;;;;;;2.47;1.15;;;;;;;9.87;35.92;99626.38;5065099;28;20457;-65
2023/03/11 14:23:49;;;;;;;0.65;0.50;;;;;;;9.50;34.33;99634.22;5012931;28;20037;-67
2023/03/11 14:26:35;;;;;;;1.33;0.65;;;;;;;9.60;36.49;99630.50;5047346;28;20115;-65
2023/03/11 14:29:07;;;;;;;0.80;0.40;;;;;;;9.72;41.22;99623.72;5063303;28;20045;-67
2023/03/11 14:31:36;;;;;;;1.73;0.52;;;;;;;9.56;37.73;99630.03;5045352;28;20040;-66
2023/03/11 14:34:24;;;;;;;1.83;0.93;;;;;;;10.09;42.14;99621.94;5054051;28;20025;-66
2023/03/11 14:36:54;;;;;;;1.35;0.80;;;;;;;10.10;36.26;99620.94;5054636;28;20120;-67
2023/03/11 14:39:35;;;;;;;0.93;0.40;;;;;;;10.19;35.11;99618.00;5053959;28;20036;-67
2023/03/11 14:42:03;;;;;;;1.45;0.60;;;;;;;8.92;37.38;99611.81;5054558;28;20042;-67
2023/03/11 14:44:32;;;;;;;0.80;0.50;;;;;;;8.80;39.11;99628.31;5054255;28;20037;-65
2023/03/11 14:47:15;;;;;;;1.35;0.55;;;;;;;8.86;35.64;99628.44;5054406;28;20017;-66
2023/03/11 14:49:41;;;;;;;0.50;0.40;;;;;;;8.83;35.82;99634.13;5054298;28;20033;-65
2023/03/11 14:52:15;;;;;;;0.60;0.40;;;;;;;8.88;39.11;99636.25;5054083;28;20029;-66
2023/03/11 14:54:43;;;;;;;0.95;0.70;;;;;;;8.67;37.36;99632.41;5053739;28;20033;-67
2023/03/11 14:57:21;;;;;;;1.40;0.50;;;;;;;8.85;39.77;99637.41;5054221;28;20068;-67
2023/03/11 14:59:49;;;;;;;1.80;0.43;;;;;;;8.45;37.78;99640.34;5054229;28;20124;-66
2023/03/11 15:02:31;;;;;;;0.40;0.35;;;;;;;8.81;39.61;99637.97;5053976;28;20036;-66
2023/03/11 15:05:01;;;;;;;2.80;0.63;;;;;;;8.62;39.45;99641.91;5054175;28;20498;-67
2023/03/11 15:07:26;;;;;;;1.45;0.75;;;;;;;8.56;40.78;99639.94;5054242;28;20043;-66
2023/03/11 15:09:52;;;;;;;1.50;0.52;;;;;;;8.29;41.72;99639.41;5054034;28;20028;-65
2023/03/11 15:12:39;;;;;;;1.48;0.63;;;;;;;8.42;44.24;99634.38;5053793;28;20033;-66
2023/03/11 15:15:26;;;;;;;1.55;0.60;;;;;;;8.27;40.36;99645.84;5053847;28;20396;-65
2023/03/11 15:17:56;;;;;;;0.90;0.52;;;;;;;8.01;41.40;99639.00;5062528;28;20058;-64
2023/03/11 15:20:33;;;;;;;0.68;0.50;;;;;;;7.92;41.98;99639.22;5073916;28;20450;-65
2023/03/11 15:23:04;;;;;;;0.52;0.52;;;;;;;7.91;41.04;99640.22;5073602;28;20098;-66
2023/03/11 15:25:36;;;;;;;1.55;0.40;;;;;;;8.05;41.63;99650.09;5073639;28;20068;-65
2023/03/11 15:28:21;;;;;;;0.40;0.40;;;;;;;8.01;42.00;99649.59;5073731;28;20086;-66
2023/03/11 15:30:46;;;;;;;0.63;0.40;;;;;;;7.90;42.49;99642.03;5073552;28;20037;-66
2023/03/11 15:33:32;;;;;;;1.17;0.70;;;;;;;7.85;42.18;99645.19;5055371;28;20033;-65
2023/03/11 15:35:57;;;;;;;4.15;1.08;;;;;;;7.54;41.32;99657.50;5073282;28;20447;-66
2023/03/11 15:38:26;;;;;;;0.40;0.30;;;;;;;7.61;42.84;99654.00;5055665;28;20110;-66
2023/03/11 15:41:00;;;;;;;1.00;0.70;;;;;;;7.51;40.62;99647.25;5073391;28;20043;-64
2023/03/11 15:43:31;;;;;;;0.50;0.40;;;;;;;7.41;43.40;99642.13;5073187;28;20120;-66
2023/03/11 15:45:59;;;;;;;2.47;0.60;;;;;;;7.33;41.54;99648.25;5073522;28;20090;-66
2023/03/11 15:48:26;;;;;;;;;;;;;;;7.27;41.44;99653.41;5073696;28;20037;-65
2023/03/11 15:50:59;;;;;;;1.42;0.70;;;;;;;7.24;43.60;99651.09;5072968;28;19920;-66
2023/03/11 15:53:26;;;;;;;0.95;0.52;;;;;;;7.28;42.65;99657.69;5072830;28;20042;-66
2023/03/11 15:55:55;;;;;;;1.67;1.00;;;;;;;7.20;42.08;99644.47;5072976;28;20036;-65
2023/03/11 15:58:21;;;;;;;3.60;0.70;;;;;;;7.14;41.75;99655.72;5073079;28;20037;-67
2023/03/11 16:00:52;;;;;;;1.70;0.70;;;;;;;7.22;44.77;99663.66;5072974;28;20063;-66
2023/03/11 16:03:18;;;;;;;0.50;0.50;;;;;;;7.26;47.17;99662.34;5072599;28;20040;-66
2023/03/11 16:05:45;;;;;;;1.42;0.80;;;;;;;7.17;46.84;99658.88;5071930;28;20040;-68
2023/03/11 16:08:11;;;;;;;3.22;0.43;;;;;;;7.21;43.72;99660.19;5072962;28;20067;-66
2023/03/11 16:10:36;;;;;;;0.40;0.40;;;;;;;7.15;43.58;99660.84;5072740;28;20028;-66
2023/03/11 16:13:02;;;;;;;1.17;1.08;;;;;;;7.02;43.29;99652.56;5072703;28;20044;-66
2023/03/11 16:15:37;;;;;;;1.88;1.20;;;;;;;6.96;44.69;99659.34;5038132;28;20040;-65
2023/03/11 16:18:06;;;;;;;3.45;0.98;;;;;;;6.96;44.18;99659.34;5072699;28;20115;-66
2023/03/11 16:20:42;;;;;;;2.80;1.10;;;;;;;7.08;48.10;99662.50;5072552;28;20489;-66
2023/03/11 16:23:30;;;;;;;2.45;1.33;;;;;;;6.94;45.03;99660.50;5072227;28;20044;-66
2023/03/11 16:26:01;;;;;;;2.15;1.17;;;;;;;6.95;45.11;99662.97;5072527;28;20449;-66
2023/03/11 16:28:27;;;;;;;0.98;0.60;;;;;;;6.90;43.42;99665.28;5072479;28;20029;-66
2023/03/11 16:30:52;;;;;;;0.98;0.75;;;;;;;6.77;43.58;99668.41;5072459;28;20036;-66
2023/03/11 16:33:18;;;;;;;1.40;0.80;;;;;;;6.68;43.83;99660.63;5072137;28;20047;-66
2023/03/11 16:35:43;;;;;;;1.20;0.85;;;;;;;6.75;44.90;99669.56;5072388;28;20062;-66
2023/03/11 16:38:09;;;;;;;0.98;0.63;;;;;;;6.69;45.46;99662.28;5072255;28;20043;-67
2023/03/11 16:40:35;;;;;;;0.65;0.55;;;;;;;6.67;47.89;99665.09;5072291;28;20043;-66
2023/03/11 16:43:09;;;;;;;0.95;0.70;;;;;;;6.64;46.18;99673.34;5072006;28;20060;-66
2023/03/11 16:45:34;;;;;;;0.57;0.40;;;;;;;6.63;48.10;99677.00;5072338;28;20037;-65
2023/03/11 16:48:00;;;;;;;1.02;0.80;;;;;;;6.63;50.25;99677.00;5072023;28;20037;-65
2023/03/11 16:50:26;;;;;;;1.02;0.95;;;;;;;6.57;48.00;99684.75;5072214;28;20041;-66
2023/03/11 16:52:52;;;;;;;1.55;0.60;;;;;;;6.55;48.30;99692.84;5053795;28;20072;-65
2023/03/11 16:55:18;;;;;;;2.22;0.80;;;;;;;6.49;47.37;99696.13;5071998;28;20044;-66
2023/03/11 16:57:44;;;;;;;1.60;0.88;;;;;;;6.50;47.88;99695.97;5072273;28;20082;-66
2023/03/11 17:00:10;;;;;;;1.00;0.70;;;;;;;6.49;48.02;99699.59;5071995;28;20033;-66
2023/03/11 17:02:37;;;;;;;2.60;0.50;;;;;;;6.41;47.82;99704.06;5071636;28;20478;-66
2023/03/11 17:05:04;;;;;;;0.80;0.57;;;;;;;6.35;47.28;99704.69;5072000;28;20089;-66
2023/03/11 17:07:30;;;;;;;1.63;0.63;;;;;;;6.37;52.91;99713.28;5071942;28;20036;-66
2023/03/11 17:09:56;;;;;;;0.80;0.60;;;;;;;6.25;47.21;99712.72;5053756;28;20089;-54
2023/03/11 17:12:22;;;;;;;1.52;0.65;;;;;;;6.01;48.03;99725.84;5071595;28;20067;-65
2023/03/11 17:14:47;;;;;;;1.65;0.55;;;;;;;5.80;48.22;99726.16;5071647;28;20060;-64
2023/03/11 17:17:13;;;;;;;2.70;0.70;;;;;;;5.84;47.31;99732.81;5071411;28;20049;-64
2023/03/11 17:19:38;;;;;;;0.75;0.52;;;;;;;5.69;47.44;99733.38;5071750;28;20040;-64
2023/03/11 17:22:04;;;;;;;1.65;0.50;;;;;;;5.31;48.47;99741.63;5071569;28;20047;-64